Lotniskowe dane METAR     ENHD Haugesund Airport, Karmøy
Temperatura
16°C Temperatura
14°C Punkt rosy
88% Wilgotność



Wiatr
8 KM/H
5 MPH
2 M/S
4 KTS



200°
SSW
Warunki bieżące

Area Deszcz Area Deszcz
Ciśnienie 1005.76 (hPa) - 29.7 (inHg)
Widoczność 6 (mil) - 9.7 (km)
Lotnisko
Kod lotniska ENHD

Położenie: Haugesund Airport, Karmøy
Odległość: 15 (km)

Metar:
ENHD 142020Z 20004KT 9999 VCSH FEW005 SCT008 BKN012 16/14 Q1006

Czas: 14-07-2024 22:20 CEST